sensor_id;sensor_type;location;lat;lon;timestamp;temperature;humidity
22526;DHT22;11429;50.842;4.386;2022-07-29T00:01:42;21.70;99.90
22526;DHT22;11429;50.842;4.386;2022-07-29T00:04:08;21.40;99.90
22526;DHT22;11429;50.842;4.386;2022-07-29T00:06:34;21.30;99.90
22526;DHT22;11429;50.842;4.386;2022-07-29T00:08:59;21.10;99.90
22526;DHT22;11429;50.842;4.386;2022-07-29T00:11:25;21.10;99.90
22526;DHT22;11429;50.842;4.386;2022-07-29T00:13:51;21.00;99.90
22526;DHT22;11429;50.842;4.386;2022-07-29T00:16:17;21.20;99.90
22526;DHT22;11429;50.842;4.386;2022-07-29T00:18:42;21.20;99.90
22526;DHT22;11429;50.842;4.386;2022-07-29T00:21:08;21.10;99.90
22526;DHT22;11429;50.842;4.386;2022-07-29T00:23:34;20.80;99.90
22526;DHT22;11429;50.842;4.386;2022-07-29T00:25:59;20.80;99.90
22526;DHT22;11429;50.842;4.386;2022-07-29T00:28:25;20.90;99.90
22526;DHT22;11429;50.842;4.386;2022-07-29T00:30:51;20.80;99.90
22526;DHT22;11429;50.842;4.386;2022-07-29T00:33:16;20.80;99.90
22526;DHT22;11429;50.842;4.386;2022-07-29T00:35:42;20.60;99.90
22526;DHT22;11429;50.842;4.386;2022-07-29T00:38:16;20.70;99.90
22526;DHT22;11429;50.842;4.386;2022-07-29T00:40:42;20.60;99.90
22526;DHT22;11429;50.842;4.386;2022-07-29T00:43:09;20.70;99.90
22526;DHT22;11429;50.842;4.386;2022-07-29T00:45:35;20.70;99.90
22526;DHT22;11429;50.842;4.386;2022-07-29T00:48:01;20.50;99.90
22526;DHT22;11429;50.842;4.386;2022-07-29T00:50:27;20.50;99.90
22526;DHT22;11429;50.842;4.386;2022-07-29T00:52:53;20.40;99.90
22526;DHT22;11429;50.842;4.386;2022-07-29T00:55:20;20.40;99.90
22526;DHT22;11429;50.842;4.386;2022-07-29T00:57:46;20.50;99.90
22526;DHT22;11429;50.842;4.386;2022-07-29T01:00:15;20.40;99.90
22526;DHT22;11429;50.842;4.386;2022-07-29T01:02:43;20.20;99.90
22526;DHT22;11429;50.842;4.386;2022-07-29T01:05:09;20.20;99.90
22526;DHT22;11429;50.842;4.386;2022-07-29T01:07:37;20.00;99.90
22526;DHT22;11429;50.842;4.386;2022-07-29T01:10:08;20.10;99.90
22526;DHT22;11429;50.842;4.386;2022-07-29T01:12:35;20.10;99.90
22526;DHT22;11429;50.842;4.386;2022-07-29T01:15:04;20.20;99.90
22526;DHT22;11429;50.842;4.386;2022-07-29T01:17:39;20.20;99.90
22526;DHT22;11429;50.842;4.386;2022-07-29T01:28:47;19.90;99.90
22526;DHT22;11429;50.842;4.386;2022-07-29T01:31:27;19.90;99.90
22526;DHT22;11429;50.842;4.386;2022-07-29T01:34:00;19.80;99.90
22526;DHT22;11429;50.842;4.386;2022-07-29T01:36:47;19.60;99.90
22526;DHT22;11429;50.842;4.386;2022-07-29T01:39:18;19.70;99.90
22526;DHT22;11429;50.842;4.386;2022-07-29T01:44:40;19.60;99.90
22526;DHT22;11429;50.842;4.386;2022-07-29T01:47:17;19.60;99.90
22526;DHT22;11429;50.842;4.386;2022-07-29T01:49:51;19.80;99.90
22526;DHT22;11429;50.842;4.386;2022-07-29T01:52:25;19.60;99.90
22526;DHT22;11429;50.842;4.386;2022-07-29T01:54:55;19.60;99.90
22526;DHT22;11429;50.842;4.386;2022-07-29T01:57:27;19.50;99.90
22526;DHT22;11429;50.842;4.386;2022-07-29T01:59:54;19.50;99.90
22526;DHT22;11429;50.842;4.386;2022-07-29T02:02:22;19.50;99.90
22526;DHT22;11429;50.842;4.386;2022-07-29T02:04:49;19.50;99.90
22526;DHT22;11429;50.842;4.386;2022-07-29T02:07:19;19.80;99.90
22526;DHT22;11429;50.842;4.386;2022-07-29T02:09:47;19.70;99.90
22526;DHT22;11429;50.842;4.386;2022-07-29T02:12:17;19.50;99.90
22526;DHT22;11429;50.842;4.386;2022-07-29T02:14:47;19.40;99.90
22526;DHT22;11429;50.842;4.386;2022-07-29T02:17:17;19.30;99.90
22526;DHT22;11429;50.842;4.386;2022-07-29T02:19:47;19.30;99.90
22526;DHT22;11429;50.842;4.386;2022-07-29T02:22:14;19.40;99.90
22526;DHT22;11429;50.842;4.386;2022-07-29T02:24:42;19.30;99.90
22526;DHT22;11429;50.842;4.386;2022-07-29T02:27:08;19.30;99.90
22526;DHT22;11429;50.842;4.386;2022-07-29T02:29:35;19.40;99.90
22526;DHT22;11429;50.842;4.386;2022-07-29T02:32:03;19.60;99.90
22526;DHT22;11429;50.842;4.386;2022-07-29T02:34:29;19.50;99.90
22526;DHT22;11429;50.842;4.386;2022-07-29T02:36:55;19.40;99.90
22526;DHT22;11429;50.842;4.386;2022-07-29T02:39:21;19.60;99.90
22526;DHT22;11429;50.842;4.386;2022-07-29T02:41:50;19.50;99.90
22526;DHT22;11429;50.842;4.386;2022-07-29T02:44:19;19.30;99.90
22526;DHT22;11429;50.842;4.386;2022-07-29T02:47:21;19.20;99.90
22526;DHT22;11429;50.842;4.386;2022-07-29T02:49:55;19.10;99.90
22526;DHT22;11429;50.842;4.386;2022-07-29T02:52:31;19.20;99.90
22526;DHT22;11429;50.842;4.386;2022-07-29T02:55:23;19.30;99.90
22526;DHT22;11429;50.842;4.386;2022-07-29T02:58:02;19.40;99.90
22526;DHT22;11429;50.842;4.386;2022-07-29T03:00:31;19.20;99.90
22526;DHT22;11429;50.842;4.386;2022-07-29T03:02:59;19.10;99.90
22526;DHT22;11429;50.842;4.386;2022-07-29T03:05:26;19.10;99.90
22526;DHT22;11429;50.842;4.386;2022-07-29T03:07:57;19.10;99.90
22526;DHT22;11429;50.842;4.386;2022-07-29T03:10:25;19.00;99.90
22526;DHT22;11429;50.842;4.386;2022-07-29T03:12:52;18.90;99.90
22526;DHT22;11429;50.842;4.386;2022-07-29T03:15:18;18.90;99.90
22526;DHT22;11429;50.842;4.386;2022-07-29T03:17:45;19.00;99.90
22526;DHT22;11429;50.842;4.386;2022-07-29T03:20:12;19.20;99.90
22526;DHT22;11429;50.842;4.386;2022-07-29T03:22:41;19.20;99.90
22526;DHT22;11429;50.842;4.386;2022-07-29T03:25:13;19.30;99.90
22526;DHT22;11429;50.842;4.386;2022-07-29T03:27:39;19.30;99.90
22526;DHT22;11429;50.842;4.386;2022-07-29T03:30:06;19.40;99.90
22526;DHT22;11429;50.842;4.386;2022-07-29T03:32:32;19.30;99.90
22526;DHT22;11429;50.842;4.386;2022-07-29T03:34:58;19.20;99.90
22526;DHT22;11429;50.842;4.386;2022-07-29T03:37:23;19.00;99.90
22526;DHT22;11429;50.842;4.386;2022-07-29T03:39:50;18.90;99.90
22526;DHT22;11429;50.842;4.386;2022-07-29T03:42:19;18.70;99.90
22526;DHT22;11429;50.842;4.386;2022-07-29T03:44:48;19.00;99.90
22526;DHT22;11429;50.842;4.386;2022-07-29T03:47:15;18.80;99.90
22526;DHT22;11429;50.842;4.386;2022-07-29T03:49:44;18.70;99.90
22526;DHT22;11429;50.842;4.386;2022-07-29T03:52:12;18.60;99.90
22526;DHT22;11429;50.842;4.386;2022-07-29T03:54:38;18.50;99.90
22526;DHT22;11429;50.842;4.386;2022-07-29T03:57:05;18.30;99.90
22526;DHT22;11429;50.842;4.386;2022-07-29T03:59:33;18.20;99.90
22526;DHT22;11429;50.842;4.386;2022-07-29T04:02:03;18.20;99.90
22526;DHT22;11429;50.842;4.386;2022-07-29T04:04:33;18.20;99.90
22526;DHT22;11429;50.842;4.386;2022-07-29T04:06:59;18.40;99.90
22526;DHT22;11429;50.842;4.386;2022-07-29T04:09:25;18.30;99.90
22526;DHT22;11429;50.842;4.386;2022-07-29T04:11:50;18.60;99.90
22526;DHT22;11429;50.842;4.386;2022-07-29T04:14:16;18.70;99.90
22526;DHT22;11429;50.842;4.386;2022-07-29T04:16:42;18.80;99.90
22526;DHT22;11429;50.842;4.386;2022-07-29T04:19:07;18.60;99.90
22526;DHT22;11429;50.842;4.386;2022-07-29T04:21:38;18.50;99.90
22526;DHT22;11429;50.842;4.386;2022-07-29T04:24:03;18.40;99.90
22526;DHT22;11429;50.842;4.386;2022-07-29T04:26:29;18.30;99.90
22526;DHT22;11429;50.842;4.386;2022-07-29T04:28:55;18.20;99.90
22526;DHT22;11429;50.842;4.386;2022-07-29T04:31:21;18.30;99.90
22526;DHT22;11429;50.842;4.386;2022-07-29T04:33:46;18.20;99.90
22526;DHT22;11429;50.842;4.386;2022-07-29T04:36:12;18.30;99.90
22526;DHT22;11429;50.842;4.386;2022-07-29T04:38:38;18.30;99.90
22526;DHT22;11429;50.842;4.386;2022-07-29T04:41:04;18.40;99.90
22526;DHT22;11429;50.842;4.386;2022-07-29T04:43:32;18.40;99.90
22526;DHT22;11429;50.842;4.386;2022-07-29T04:45:58;18.60;99.90
22526;DHT22;11429;50.842;4.386;2022-07-29T04:48:24;18.70;99.90
22526;DHT22;11429;50.842;4.386;2022-07-29T04:50:49;18.60;99.90
22526;DHT22;11429;50.842;4.386;2022-07-29T04:53:15;18.70;99.90
22526;DHT22;11429;50.842;4.386;2022-07-29T04:55:41;18.90;99.90
22526;DHT22;11429;50.842;4.386;2022-07-29T04:58:07;18.90;99.90
22526;DHT22;11429;50.842;4.386;2022-07-29T05:00:33;18.90;99.90
22526;DHT22;11429;50.842;4.386;2022-07-29T05:02:59;18.80;99.90
22526;DHT22;11429;50.842;4.386;2022-07-29T05:05:24;18.80;99.90
22526;DHT22;11429;50.842;4.386;2022-07-29T05:07:50;19.20;99.90
22526;DHT22;11429;50.842;4.386;2022-07-29T05:10:16;19.00;99.90
22526;DHT22;11429;50.842;4.386;2022-07-29T05:12:41;18.90;99.90
22526;DHT22;11429;50.842;4.386;2022-07-29T05:15:07;19.10;99.90
22526;DHT22;11429;50.842;4.386;2022-07-29T05:17:33;19.00;99.90
22526;DHT22;11429;50.842;4.386;2022-07-29T05:19:59;19.20;99.90
22526;DHT22;11429;50.842;4.386;2022-07-29T05:22:24;19.30;99.90
22526;DHT22;11429;50.842;4.386;2022-07-29T05:24:50;19.60;99.90
22526;DHT22;11429;50.842;4.386;2022-07-29T05:27:16;19.70;99.90
22526;DHT22;11429;50.842;4.386;2022-07-29T05:29:42;20.20;99.90
22526;DHT22;11429;50.842;4.386;2022-07-29T05:32:07;20.50;99.90
22526;DHT22;11429;50.842;4.386;2022-07-29T05:34:33;20.60;99.90
22526;DHT22;11429;50.842;4.386;2022-07-29T05:36:59;20.60;99.90
22526;DHT22;11429;50.842;4.386;2022-07-29T05:39:24;20.90;99.90
22526;DHT22;11429;50.842;4.386;2022-07-29T05:41:50;21.40;99.90
22526;DHT22;11429;50.842;4.386;2022-07-29T05:44:17;21.30;99.90
22526;DHT22;11429;50.842;4.386;2022-07-29T05:46:42;21.30;99.90
22526;DHT22;11429;50.842;4.386;2022-07-29T05:49:08;21.60;99.90
22526;DHT22;11429;50.842;4.386;2022-07-29T05:51:34;21.50;99.90
22526;DHT22;11429;50.842;4.386;2022-07-29T05:53:59;21.40;99.90
22526;DHT22;11429;50.842;4.386;2022-07-29T05:56:25;21.20;99.90
22526;DHT22;11429;50.842;4.386;2022-07-29T05:58:51;21.40;99.90
22526;DHT22;11429;50.842;4.386;2022-07-29T06:01:17;22.40;99.90
22526;DHT22;11429;50.842;4.386;2022-07-29T06:03:43;24.00;99.90
22526;DHT22;11429;50.842;4.386;2022-07-29T06:06:09;25.00;99.90
22526;DHT22;11429;50.842;4.386;2022-07-29T06:08:35;25.30;99.80
22526;DHT22;11429;50.842;4.386;2022-07-29T06:11:02;26.30;98.50
22526;DHT22;11429;50.842;4.386;2022-07-29T06:13:29;27.20;97.30
22526;DHT22;11429;50.842;4.386;2022-07-29T06:15:54;28.10;95.80
22526;DHT22;11429;50.842;4.386;2022-07-29T06:18:21;29.40;94.50
22526;DHT22;11429;50.842;4.386;2022-07-29T06:20:50;30.60;92.90
22526;DHT22;11429;50.842;4.386;2022-07-29T06:23:16;31.10;91.60
22526;DHT22;11429;50.842;4.386;2022-07-29T06:25:42;31.60;90.90
22526;DHT22;11429;50.842;4.386;2022-07-29T06:28:08;32.60;89.30
22526;DHT22;11429;50.842;4.386;2022-07-29T06:30:34;32.70;88.30
22526;DHT22;11429;50.842;4.386;2022-07-29T06:32:59;31.80;88.80
22526;DHT22;11429;50.842;4.386;2022-07-29T06:35:26;32.20;88.30
22526;DHT22;11429;50.842;4.386;2022-07-29T06:37:52;32.50;87.20
22526;DHT22;11429;50.842;4.386;2022-07-29T06:40:18;32.90;86.90
22526;DHT22;11429;50.842;4.386;2022-07-29T06:43:02;33.10;85.10
22526;DHT22;11429;50.842;4.386;2022-07-29T06:45:28;34.50;83.20
22526;DHT22;11429;50.842;4.386;2022-07-29T06:47:53;34.30;82.20
22526;DHT22;11429;50.842;4.386;2022-07-29T06:50:20;33.80;81.80
22526;DHT22;11429;50.842;4.386;2022-07-29T06:52:47;34.20;82.10
22526;DHT22;11429;50.842;4.386;2022-07-29T06:55:13;34.70;80.70
22526;DHT22;11429;50.842;4.386;2022-07-29T06:57:39;34.70;80.60
22526;DHT22;11429;50.842;4.386;2022-07-29T07:00:06;34.50;80.50
22526;DHT22;11429;50.842;4.386;2022-07-29T07:02:32;35.40;79.10
22526;DHT22;11429;50.842;4.386;2022-07-29T07:04:57;32.20;83.10
22526;DHT22;11429;50.842;4.386;2022-07-29T07:07:24;28.80;90.20
22526;DHT22;11429;50.842;4.386;2022-07-29T07:09:50;28.60;91.10
22526;DHT22;11429;50.842;4.386;2022-07-29T07:12:15;27.10;92.50
22526;DHT22;11429;50.842;4.386;2022-07-29T07:14:41;25.70;94.30
22526;DHT22;11429;50.842;4.386;2022-07-29T07:17:07;24.90;96.00
22526;DHT22;11429;50.842;4.386;2022-07-29T07:19:33;24.60;96.60
22526;DHT22;11429;50.842;4.386;2022-07-29T07:21:59;25.40;95.80
22526;DHT22;11429;50.842;4.386;2022-07-29T07:24:24;25.70;95.50
22526;DHT22;11429;50.842;4.386;2022-07-29T07:26:50;26.10;95.00
22526;DHT22;11429;50.842;4.386;2022-07-29T07:29:16;26.20;95.00
22526;DHT22;11429;50.842;4.386;2022-07-29T07:31:42;25.40;95.60
22526;DHT22;11429;50.842;4.386;2022-07-29T07:34:08;24.30;97.70
22526;DHT22;11429;50.842;4.386;2022-07-29T07:36:33;24.10;98.30
22526;DHT22;11429;50.842;4.386;2022-07-29T07:38:59;23.80;98.80
22526;DHT22;11429;50.842;4.386;2022-07-29T07:41:25;24.80;97.60
22526;DHT22;11429;50.842;4.386;2022-07-29T07:43:50;26.10;95.90
22526;DHT22;11429;50.842;4.386;2022-07-29T07:46:16;25.30;96.50
22526;DHT22;11429;50.842;4.386;2022-07-29T07:48:42;25.30;96.60
22526;DHT22;11429;50.842;4.386;2022-07-29T07:51:08;25.10;97.00
22526;DHT22;11429;50.842;4.386;2022-07-29T07:53:34;25.60;96.90
22526;DHT22;11429;50.842;4.386;2022-07-29T07:56:00;28.60;93.60
22526;DHT22;11429;50.842;4.386;2022-07-29T07:58:25;30.80;91.10
22526;DHT22;11429;50.842;4.386;2022-07-29T08:00:51;30.90;90.20
22526;DHT22;11429;50.842;4.386;2022-07-29T08:03:17;32.40;88.50
22526;DHT22;11429;50.842;4.386;2022-07-29T08:05:43;33.90;85.10
22526;DHT22;11429;50.842;4.386;2022-07-29T08:08:08;34.80;82.30
22526;DHT22;11429;50.842;4.386;2022-07-29T08:10:34;34.30;82.10
22526;DHT22;11429;50.842;4.386;2022-07-29T08:13:20;33.90;83.00
22526;DHT22;11429;50.842;4.386;2022-07-29T08:15:46;33.00;84.00
22526;DHT22;11429;50.842;4.386;2022-07-29T08:18:12;32.40;85.50
22526;DHT22;11429;50.842;4.386;2022-07-29T08:20:39;32.00;86.40
22526;DHT22;11429;50.842;4.386;2022-07-29T08:23:06;29.40;90.90
22526;DHT22;11429;50.842;4.386;2022-07-29T08:25:35;27.80;93.10
22526;DHT22;11429;50.842;4.386;2022-07-29T08:28:01;27.70;93.20
22526;DHT22;11429;50.842;4.386;2022-07-29T08:30:27;28.10;92.90
22526;DHT22;11429;50.842;4.386;2022-07-29T08:32:53;28.00;93.20
22526;DHT22;11429;50.842;4.386;2022-07-29T08:35:20;27.50;93.70
22526;DHT22;11429;50.842;4.386;2022-07-29T08:37:46;28.00;93.20
22526;DHT22;11429;50.842;4.386;2022-07-29T08:40:11;27.70;93.60
22526;DHT22;11429;50.842;4.386;2022-07-29T08:42:37;27.00;94.40
22526;DHT22;11429;50.842;4.386;2022-07-29T08:45:04;26.00;95.70
22526;DHT22;11429;50.842;4.386;2022-07-29T08:47:30;26.10;95.80
22526;DHT22;11429;50.842;4.386;2022-07-29T08:49:56;25.30;97.30
22526;DHT22;11429;50.842;4.386;2022-07-29T08:52:25;24.40;98.00
22526;DHT22;11429;50.842;4.386;2022-07-29T08:54:52;24.90;97.90
22526;DHT22;11429;50.842;4.386;2022-07-29T08:57:19;25.40;97.20
22526;DHT22;11429;50.842;4.386;2022-07-29T08:59:46;25.60;96.90
22526;DHT22;11429;50.842;4.386;2022-07-29T09:02:19;26.20;96.70
22526;DHT22;11429;50.842;4.386;2022-07-29T09:04:45;27.20;95.40
22526;DHT22;11429;50.842;4.386;2022-07-29T09:07:15;28.10;94.80
22526;DHT22;11429;50.842;4.386;2022-07-29T09:09:41;28.50;93.80
22526;DHT22;11429;50.842;4.386;2022-07-29T09:12:08;29.10;92.60
22526;DHT22;11429;50.842;4.386;2022-07-29T09:14:34;29.90;92.20
22526;DHT22;11429;50.842;4.386;2022-07-29T09:17:00;32.60;89.00
22526;DHT22;11429;50.842;4.386;2022-07-29T09:19:32;31.70;88.90
22526;DHT22;11429;50.842;4.386;2022-07-29T09:22:04;32.20;89.10
22526;DHT22;11429;50.842;4.386;2022-07-29T09:27:00;30.00;90.50
22526;DHT22;11429;50.842;4.386;2022-07-29T09:29:26;29.90;90.40
22526;DHT22;11429;50.842;4.386;2022-07-29T09:31:53;31.70;87.30
22526;DHT22;11429;50.842;4.386;2022-07-29T09:34:25;33.50;84.00
22526;DHT22;11429;50.842;4.386;2022-07-29T09:36:53;32.70;84.10
22526;DHT22;11429;50.842;4.386;2022-07-29T09:39:39;32.80;85.00
22526;DHT22;11429;50.842;4.386;2022-07-29T09:42:11;35.20;81.00
22526;DHT22;11429;50.842;4.386;2022-07-29T09:44:47;34.40;81.30
22526;DHT22;11429;50.842;4.386;2022-07-29T09:47:14;33.70;82.40
22526;DHT22;11429;50.842;4.386;2022-07-29T09:49:59;31.80;86.30
22526;DHT22;11429;50.842;4.386;2022-07-29T09:52:26;31.40;86.50
22526;DHT22;11429;50.842;4.386;2022-07-29T09:54:52;31.90;86.60
22526;DHT22;11429;50.842;4.386;2022-07-29T09:57:26;31.00;87.80
22526;DHT22;11429;50.842;4.386;2022-07-29T09:59:57;31.90;85.70
22526;DHT22;11429;50.842;4.386;2022-07-29T10:02:28;31.30;86.10
22526;DHT22;11429;50.842;4.386;2022-07-29T10:04:54;32.80;85.10
22526;DHT22;11429;50.842;4.386;2022-07-29T10:07:20;34.60;81.00
22526;DHT22;11429;50.842;4.386;2022-07-29T10:09:53;33.50;82.00
22526;DHT22;11429;50.842;4.386;2022-07-29T10:12:20;33.90;81.60
22526;DHT22;11429;50.842;4.386;2022-07-29T10:14:45;34.00;81.30
22526;DHT22;11429;50.842;4.386;2022-07-29T10:17:12;31.90;84.40
22526;DHT22;11429;50.842;4.386;2022-07-29T10:19:38;31.90;85.30
22526;DHT22;11429;50.842;4.386;2022-07-29T10:22:07;31.90;83.00
22526;DHT22;11429;50.842;4.386;2022-07-29T10:24:34;30.90;86.20
22526;DHT22;11429;50.842;4.386;2022-07-29T10:27:02;31.30;86.20
22526;DHT22;11429;50.842;4.386;2022-07-29T10:29:29;33.30;81.70
22526;DHT22;11429;50.842;4.386;2022-07-29T10:35:15;34.30;78.40
22526;DHT22;11429;50.842;4.386;2022-07-29T10:40:39;35.20;76.40
22526;DHT22;11429;50.842;4.386;2022-07-29T10:43:35;35.10;76.10
22526;DHT22;11429;50.842;4.386;2022-07-29T10:46:03;33.20;78.70
22526;DHT22;11429;50.842;4.386;2022-07-29T10:48:29;34.10;78.00
22526;DHT22;11429;50.842;4.386;2022-07-29T10:51:03;32.60;79.90
22526;DHT22;11429;50.842;4.386;2022-07-29T10:53:46;33.10;78.80
22526;DHT22;11429;50.842;4.386;2022-07-29T10:56:32;34.10;76.90
22526;DHT22;11429;50.842;4.386;2022-07-29T11:01:46;34.00;76.60
22526;DHT22;11429;50.842;4.386;2022-07-29T11:04:12;33.80;77.50
22526;DHT22;11429;50.842;4.386;2022-07-29T11:09:24;34.70;75.30
22526;DHT22;11429;50.842;4.386;2022-07-29T11:11:49;33.20;77.40
22526;DHT22;11429;50.842;4.386;2022-07-29T11:14:15;32.60;79.40
22526;DHT22;11429;50.842;4.386;2022-07-29T11:17:04;31.90;79.60
22526;DHT22;11429;50.842;4.386;2022-07-29T11:19:31;33.00;77.70
22526;DHT22;11429;50.842;4.386;2022-07-29T11:21:57;34.20;76.40
22526;DHT22;11429;50.842;4.386;2022-07-29T11:24:26;35.30;73.30
22526;DHT22;11429;50.842;4.386;2022-07-29T11:27:19;35.80;71.60
22526;DHT22;11429;50.842;4.386;2022-07-29T11:29:58;35.50;71.00
22526;DHT22;11429;50.842;4.386;2022-07-29T11:32:36;35.00;72.20
22526;DHT22;11429;50.842;4.386;2022-07-29T11:35:22;34.00;74.00
22526;DHT22;11429;50.842;4.386;2022-07-29T11:38:26;32.00;78.00
22526;DHT22;11429;50.842;4.386;2022-07-29T11:43:56;30.90;82.00
22526;DHT22;11429;50.842;4.386;2022-07-29T11:49:07;30.70;80.90
22526;DHT22;11429;50.842;4.386;2022-07-29T11:51:35;30.70;81.20
22526;DHT22;11429;50.842;4.386;2022-07-29T11:54:02;31.80;79.40
22526;DHT22;11429;50.842;4.386;2022-07-29T11:56:31;32.40;78.30
22526;DHT22;11429;50.842;4.386;2022-07-29T11:59:07;33.40;75.30
22526;DHT22;11429;50.842;4.386;2022-07-29T12:01:35;33.20;76.20
22526;DHT22;11429;50.842;4.386;2022-07-29T12:04:07;33.20;76.10
22526;DHT22;11429;50.842;4.386;2022-07-29T12:06:36;33.30;75.70
22526;DHT22;11429;50.842;4.386;2022-07-29T12:09:08;33.10;76.10
22526;DHT22;11429;50.842;4.386;2022-07-29T12:11:34;32.80;76.30
22526;DHT22;11429;50.842;4.386;2022-07-29T12:14:00;32.90;76.90
22526;DHT22;11429;50.842;4.386;2022-07-29T12:16:35;32.30;78.00
22526;DHT22;11429;50.842;4.386;2022-07-29T12:19:03;31.90;77.50
22526;DHT22;11429;50.842;4.386;2022-07-29T12:21:42;31.60;77.50
22526;DHT22;11429;50.842;4.386;2022-07-29T12:24:08;31.10;79.00
22526;DHT22;11429;50.842;4.386;2022-07-29T12:26:34;30.80;80.50
22526;DHT22;11429;50.842;4.386;2022-07-29T12:29:00;30.70;80.40
22526;DHT22;11429;50.842;4.386;2022-07-29T12:31:25;31.00;78.90
22526;DHT22;11429;50.842;4.386;2022-07-29T12:33:52;31.00;78.50
22526;DHT22;11429;50.842;4.386;2022-07-29T12:36:19;30.30;80.60
22526;DHT22;11429;50.842;4.386;2022-07-29T12:38:45;29.50;82.40
22526;DHT22;11429;50.842;4.386;2022-07-29T12:41:11;28.90;83.60
22526;DHT22;11429;50.842;4.386;2022-07-29T12:43:37;28.80;83.80
22526;DHT22;11429;50.842;4.386;2022-07-29T12:46:14;29.00;84.00
22526;DHT22;11429;50.842;4.386;2022-07-29T12:48:41;29.30;82.60
22526;DHT22;11429;50.842;4.386;2022-07-29T12:51:08;30.10;80.70
22526;DHT22;11429;50.842;4.386;2022-07-29T12:53:36;30.50;79.60
22526;DHT22;11429;50.842;4.386;2022-07-29T12:56:02;30.10;80.70
22526;DHT22;11429;50.842;4.386;2022-07-29T12:58:33;29.50;82.00
22526;DHT22;11429;50.842;4.386;2022-07-29T13:01:11;29.20;81.80
22526;DHT22;11429;50.842;4.386;2022-07-29T13:03:54;29.00;82.70
22526;DHT22;11429;50.842;4.386;2022-07-29T13:09:06;28.70;84.00
22526;DHT22;11429;50.842;4.386;2022-07-29T13:11:52;29.60;81.80
22526;DHT22;11429;50.842;4.386;2022-07-29T13:14:38;29.70;81.40
22526;DHT22;11429;50.842;4.386;2022-07-29T13:22:11;28.00;86.30
22526;DHT22;11429;50.842;4.386;2022-07-29T13:27:14;27.70;86.90
22526;DHT22;11429;50.842;4.386;2022-07-29T13:29:40;28.40;86.20
22526;DHT22;11429;50.842;4.386;2022-07-29T13:32:05;28.70;85.10
22526;DHT22;11429;50.842;4.386;2022-07-29T13:34:31;29.10;83.90
22526;DHT22;11429;50.842;4.386;2022-07-29T13:36:57;29.10;83.90
22526;DHT22;11429;50.842;4.386;2022-07-29T13:39:22;28.90;85.10
22526;DHT22;11429;50.842;4.386;2022-07-29T13:41:48;29.30;84.80
22526;DHT22;11429;50.842;4.386;2022-07-29T13:44:14;29.40;83.80
22526;DHT22;11429;50.842;4.386;2022-07-29T13:46:40;29.40;83.80
22526;DHT22;11429;50.842;4.386;2022-07-29T13:49:06;29.20;83.60
22526;DHT22;11429;50.842;4.386;2022-07-29T13:51:31;29.30;82.90
22526;DHT22;11429;50.842;4.386;2022-07-29T13:53:57;29.10;83.70
22526;DHT22;11429;50.842;4.386;2022-07-29T13:56:23;29.00;84.00
22526;DHT22;11429;50.842;4.386;2022-07-29T13:58:49;28.70;84.20
22526;DHT22;11429;50.842;4.386;2022-07-29T14:01:15;28.60;85.10
22526;DHT22;11429;50.842;4.386;2022-07-29T14:03:40;28.80;84.80
22526;DHT22;11429;50.842;4.386;2022-07-29T14:06:08;28.80;84.80
22526;DHT22;11429;50.842;4.386;2022-07-29T14:08:34;28.50;84.50
22526;DHT22;11429;50.842;4.386;2022-07-29T14:11:00;28.00;84.80
22526;DHT22;11429;50.842;4.386;2022-07-29T14:13:26;27.90;85.30
22526;DHT22;11429;50.842;4.386;2022-07-29T14:15:52;27.70;85.10
22526;DHT22;11429;50.842;4.386;2022-07-29T14:18:18;27.70;85.00
22526;DHT22;11429;50.842;4.386;2022-07-29T14:20:43;27.50;85.20
22526;DHT22;11429;50.842;4.386;2022-07-29T14:23:09;27.50;85.30
22526;DHT22;11429;50.842;4.386;2022-07-29T14:25:35;27.30;84.40
22526;DHT22;11429;50.842;4.386;2022-07-29T14:28:00;27.30;84.80
22526;DHT22;11429;50.842;4.386;2022-07-29T14:30:26;27.40;84.50
22526;DHT22;11429;50.842;4.386;2022-07-29T14:32:51;27.10;85.00
22526;DHT22;11429;50.842;4.386;2022-07-29T14:35:17;27.50;85.50
22526;DHT22;11429;50.842;4.386;2022-07-29T14:37:43;27.40;86.00
22526;DHT22;11429;50.842;4.386;2022-07-29T14:40:10;27.00;87.40
22526;DHT22;11429;50.842;4.386;2022-07-29T14:42:36;27.20;87.90
22526;DHT22;11429;50.842;4.386;2022-07-29T14:45:06;27.50;86.40
22526;DHT22;11429;50.842;4.386;2022-07-29T14:47:32;27.80;85.60
22526;DHT22;11429;50.842;4.386;2022-07-29T14:49:57;28.10;84.40
22526;DHT22;11429;50.842;4.386;2022-07-29T14:52:23;28.00;85.00
22526;DHT22;11429;50.842;4.386;2022-07-29T14:54:48;27.90;85.10
22526;DHT22;11429;50.842;4.386;2022-07-29T14:57:14;28.00;84.10
22526;DHT22;11429;50.842;4.386;2022-07-29T14:59:40;27.80;85.10
22526;DHT22;11429;50.842;4.386;2022-07-29T15:02:06;27.80;86.00
22526;DHT22;11429;50.842;4.386;2022-07-29T15:04:31;27.90;85.80
22526;DHT22;11429;50.842;4.386;2022-07-29T15:06:57;28.50;85.40
22526;DHT22;11429;50.842;4.386;2022-07-29T15:09:23;28.80;84.30
22526;DHT22;11429;50.842;4.386;2022-07-29T15:11:49;28.40;84.10
22526;DHT22;11429;50.842;4.386;2022-07-29T15:14:15;28.00;84.50
22526;DHT22;11429;50.842;4.386;2022-07-29T15:16:40;27.60;85.50
22526;DHT22;11429;50.842;4.386;2022-07-29T15:19:08;27.30;86.60
22526;DHT22;11429;50.842;4.386;2022-07-29T15:21:34;27.20;88.00
22526;DHT22;11429;50.842;4.386;2022-07-29T15:23:59;27.20;88.70
22526;DHT22;11429;50.842;4.386;2022-07-29T15:26:25;27.30;87.90
22526;DHT22;11429;50.842;4.386;2022-07-29T15:28:51;27.60;87.40
22526;DHT22;11429;50.842;4.386;2022-07-29T15:31:17;28.00;86.90
22526;DHT22;11429;50.842;4.386;2022-07-29T15:33:44;28.30;86.00
22526;DHT22;11429;50.842;4.386;2022-07-29T15:36:10;28.20;86.30
22526;DHT22;11429;50.842;4.386;2022-07-29T15:38:38;28.20;86.60
22526;DHT22;11429;50.842;4.386;2022-07-29T15:41:06;27.80;87.70
22526;DHT22;11429;50.842;4.386;2022-07-29T15:43:32;27.40;86.80
22526;DHT22;11429;50.842;4.386;2022-07-29T15:46:00;27.40;86.00
22526;DHT22;11429;50.842;4.386;2022-07-29T15:48:44;27.40;86.70
22526;DHT22;11429;50.842;4.386;2022-07-29T15:51:10;27.20;87.70
22526;DHT22;11429;50.842;4.386;2022-07-29T15:53:36;27.20;87.00
22526;DHT22;11429;50.842;4.386;2022-07-29T15:56:02;27.20;86.10
22526;DHT22;11429;50.842;4.386;2022-07-29T15:58:27;27.00;85.80
22526;DHT22;11429;50.842;4.386;2022-07-29T16:00:53;27.10;86.40
22526;DHT22;11429;50.842;4.386;2022-07-29T16:03:19;27.10;86.50
22526;DHT22;11429;50.842;4.386;2022-07-29T16:05:45;27.50;86.00
22526;DHT22;11429;50.842;4.386;2022-07-29T16:08:11;27.80;85.10
22526;DHT22;11429;50.842;4.386;2022-07-29T16:10:37;27.80;84.70
22526;DHT22;11429;50.842;4.386;2022-07-29T16:13:02;27.40;85.40
22526;DHT22;11429;50.842;4.386;2022-07-29T16:15:28;27.10;86.00
22526;DHT22;11429;50.842;4.386;2022-07-29T16:17:54;27.10;86.50